createdAt,value
2023-03-17T00:00:04.022Z,3.30
2023-03-17T00:00:14.731Z,3.20
2023-03-17T00:00:27.514Z,3.30
2023-03-17T00:00:39.976Z,3.30
2023-03-17T00:00:51.715Z,3.00
2023-03-17T00:01:02.496Z,2.70
2023-03-17T00:01:13.252Z,2.90
2023-03-17T00:01:25.473Z,3.20
2023-03-17T00:01:38.179Z,3.20
2023-03-17T00:01:48.901Z,3.00
2023-03-17T00:01:59.664Z,2.80
2023-03-17T00:02:11.477Z,3.20
2023-03-17T00:02:22.285Z,3.10
2023-03-17T00:02:33.117Z,3.10
2023-03-17T00:02:43.865Z,2.80
2023-03-17T00:02:56.262Z,3.20
2023-03-17T00:03:07.040Z,3.30
2023-03-17T00:03:18.794Z,3.10
2023-03-17T00:03:29.730Z,2.90
2023-03-17T00:03:41.523Z,2.80
2023-03-17T00:03:53.254Z,3.00
2023-03-17T00:04:04.007Z,2.90
2023-03-17T00:04:15.741Z,3.30
2023-03-17T00:04:28.210Z,3.20
2023-03-17T00:04:39.890Z,3.40
2023-03-17T00:04:52.334Z,3.10
2023-03-17T00:05:04.846Z,3.00
2023-03-17T00:05:15.597Z,3.00
2023-03-17T00:05:26.340Z,3.20
2023-03-17T00:05:37.117Z,3.10
2023-03-17T00:05:47.918Z,2.70
2023-03-17T00:06:01.641Z,2.80
2023-03-17T00:06:13.389Z,3.00
2023-03-17T00:06:24.133Z,2.80
2023-03-17T00:06:34.887Z,2.90
2023-03-17T00:06:45.612Z,3.00
2023-03-17T00:06:56.355Z,3.00
2023-03-17T00:07:08.544Z,3.00
2023-03-17T00:07:19.300Z,2.70
2023-03-17T00:07:30.232Z,2.60
2023-03-17T00:07:42.443Z,2.40
2023-03-17T00:07:53.307Z,2.70
2023-03-17T00:08:06.983Z,3.00
2023-03-17T00:08:17.731Z,3.20
2023-03-17T00:08:28.467Z,3.20
2023-03-17T00:08:39.203Z,3.00
2023-03-17T00:08:51.630Z,3.40
2023-03-17T00:09:04.040Z,3.50
2023-03-17T00:09:14.912Z,3.40
2023-03-17T00:09:27.184Z,3.30
2023-03-17T00:09:37.976Z,3.50
2023-03-17T00:09:48.754Z,3.50
2023-03-17T00:10:01.463Z,3.10
2023-03-17T00:10:13.700Z,3.10
2023-03-17T00:10:26.957Z,3.40
2023-03-17T00:10:38.630Z,3.50
2023-03-17T00:10:49.391Z,3.70
2023-03-17T00:11:00.144Z,3.20
2023-03-17T00:11:10.876Z,3.20
2023-03-17T00:11:22.587Z,3.20
2023-03-17T00:11:35.052Z,3.10
2023-03-17T00:11:45.780Z,3.20
2023-03-17T00:11:58.213Z,3.10
2023-03-17T00:12:09.952Z,3.30
2023-03-17T00:12:20.734Z,3.40
2023-03-17T00:12:31.463Z,3.40
2023-03-17T00:12:42.203Z,3.00
2023-03-17T00:12:53.953Z,2.70
2023-03-17T00:13:05.667Z,2.60
2023-03-17T00:13:18.093Z,3.00
2023-03-17T00:13:29.826Z,2.90
2023-03-17T00:13:40.607Z,3.00
2023-03-17T00:13:52.328Z,3.20
2023-03-17T00:14:03.120Z,3.20
2023-03-17T00:14:13.877Z,3.00
2023-03-17T00:14:24.614Z,3.20
2023-03-17T00:14:35.424Z,3.60
2023-03-17T00:14:47.892Z,3.60
2023-03-17T00:14:59.615Z,3.50
2023-03-17T00:15:10.395Z,3.10
2023-03-17T00:15:23.045Z,3.00
2023-03-17T00:15:34.766Z,3.20
2023-03-17T00:15:45.605Z,3.00
2023-03-17T00:15:56.403Z,3.00
2023-03-17T00:16:07.222Z,3.20
2023-03-17T00:16:20.340Z,3.20
2023-03-17T00:16:31.176Z,3.20
2023-03-17T00:16:44.148Z,3.10
2023-03-17T00:16:54.906Z,3.00
2023-03-17T00:17:05.666Z,2.90
2023-03-17T00:17:17.634Z,3.00
2023-03-17T00:17:30.375Z,3.00
2023-03-17T00:17:41.135Z,3.30
2023-03-17T00:17:52.887Z,3.40
2023-03-17T00:18:04.668Z,3.10
2023-03-17T00:18:17.395Z,3.30
2023-03-17T00:18:29.629Z,2.90
2023-03-17T00:18:40.362Z,3.10
2023-03-17T00:18:51.116Z,3.20
2023-03-17T00:19:01.817Z,3.00
2023-03-17T00:19:12.599Z,2.80
2023-03-17T00:19:24.304Z,2.60
2023-03-17T00:19:35.061Z,3.00
2023-03-17T00:19:45.826Z,3.00
2023-03-17T00:19:56.618Z,3.10
2023-03-17T00:20:08.834Z,3.10
2023-03-17T00:20:21.288Z,3.20
2023-03-17T00:20:33.767Z,3.80
2023-03-17T00:20:45.976Z,3.70
2023-03-17T00:20:58.189Z,3.30
2023-03-17T00:21:09.937Z,3.30
2023-03-17T00:21:20.688Z,3.40
2023-03-17T00:21:31.443Z,3.40
2023-03-17T00:21:43.881Z,3.00
2023-03-17T00:21:56.428Z,3.30
2023-03-17T00:22:08.839Z,3.20
2023-03-17T00:22:20.549Z,3.00
2023-03-17T00:22:31.288Z,3.00
2023-03-17T00:22:42.045Z,3.00
2023-03-17T00:22:52.775Z,3.00
2023-03-17T00:23:03.552Z,3.00
2023-03-17T00:23:14.281Z,2.90
2023-03-17T00:23:25.049Z,3.10
2023-03-17T00:23:37.479Z,3.70
2023-03-17T00:23:48.229Z,3.70
2023-03-17T00:23:58.987Z,3.20
2023-03-17T00:24:11.592Z,3.00
2023-03-17T00:24:22.634Z,3.10
2023-03-17T00:24:34.357Z,3.40
2023-03-17T00:24:46.067Z,3.60
2023-03-17T00:24:56.830Z,3.50
2023-03-17T00:25:07.567Z,3.20
2023-03-17T00:25:19.261Z,2.90
2023-03-17T00:25:31.719Z,3.00
2023-03-17T00:25:43.927Z,3.30
2023-03-17T00:25:55.616Z,3.50
2023-03-17T00:26:06.424Z,3.50
2023-03-17T00:26:18.999Z,3.30
2023-03-17T00:26:29.721Z,3.30
2023-03-17T00:26:44.480Z,3.30
2023-03-17T00:26:56.238Z,3.20
2023-03-17T00:27:09.191Z,3.60
2023-03-17T00:27:21.638Z,4.10
2023-03-17T00:27:34.350Z,3.80
2023-03-17T00:27:45.100Z,3.70
2023-03-17T00:27:57.580Z,3.20
2023-03-17T00:28:09.305Z,3.00
2023-03-17T00:28:20.109Z,3.10
2023-03-17T00:28:30.881Z,3.60
2023-03-17T00:28:42.719Z,3.60
2023-03-17T00:28:54.461Z,3.60
2023-03-17T00:29:05.258Z,3.60
2023-03-17T00:29:15.997Z,3.50
2023-03-17T00:29:26.737Z,3.10
2023-03-17T00:29:39.169Z,3.10
2023-03-17T00:29:49.950Z,3.00
2023-03-17T00:30:02.407Z,3.10
2023-03-17T00:30:13.140Z,2.90
2023-03-17T00:30:23.881Z,2.90
2023-03-17T00:30:34.652Z,2.90
2023-03-17T00:30:47.589Z,3.00
2023-03-17T00:31:01.374Z,3.00
2023-03-17T00:31:12.145Z,3.30
2023-03-17T00:31:23.911Z,3.20
2023-03-17T00:31:35.737Z,3.00
2023-03-17T00:31:48.953Z,2.90
2023-03-17T00:31:59.717Z,3.00
2023-03-17T00:32:12.170Z,3.00
2023-03-17T00:32:23.124Z,3.10
2023-03-17T00:32:33.947Z,3.00
2023-03-17T00:32:44.731Z,3.10
2023-03-17T00:32:55.532Z,3.00
2023-03-17T00:33:06.326Z,3.40
2023-03-17T00:33:17.079Z,3.40
2023-03-17T00:33:27.841Z,3.40
2023-03-17T00:33:38.580Z,3.20
2023-03-17T00:33:51.021Z,3.10
2023-03-17T00:34:03.537Z,3.10
2023-03-17T00:34:16.265Z,3.20
2023-03-17T00:34:26.990Z,3.30
2023-03-17T00:34:37.739Z,3.30
2023-03-17T00:34:49.500Z,3.40
2023-03-17T00:35:00.259Z,3.30
2023-03-17T00:35:12.001Z,3.40
2023-03-17T00:35:22.971Z,3.60
2023-03-17T00:35:34.694Z,3.40
2023-03-17T00:35:45.534Z,3.20
2023-03-17T00:35:56.340Z,3.20
2023-03-17T00:36:07.139Z,3.30
2023-03-17T00:36:19.314Z,3.20
2023-03-17T00:36:30.092Z,3.10
2023-03-17T00:36:42.533Z,3.10
2023-03-17T00:36:54.230Z,3.40
2023-03-17T00:37:09.010Z,3.50
2023-03-17T00:37:22.235Z,3.30
2023-03-17T00:37:33.012Z,3.20
2023-03-17T00:37:44.752Z,3.10
2023-03-17T00:37:56.466Z,3.10
2023-03-17T00:38:10.061Z,3.30
2023-03-17T00:38:21.764Z,3.20
2023-03-17T00:38:34.971Z,3.00
2023-03-17T00:38:47.408Z,2.80
2023-03-17T00:38:58.131Z,2.60
2023-03-17T00:39:09.841Z,2.70
2023-03-17T00:39:22.211Z,2.70
2023-03-17T00:39:32.973Z,2.90
2023-03-17T00:39:44.689Z,3.20
2023-03-17T00:39:56.397Z,3.60
2023-03-17T00:40:08.089Z,3.50
2023-03-17T00:40:20.560Z,3.40
2023-03-17T00:40:32.621Z,3.00
2023-03-17T00:41:08.358Z,0.00
2023-03-17T00:41:22.723Z,3.10
2023-03-17T00:41:34.978Z,3.20
2023-03-17T00:42:10.364Z,0.00
2023-03-17T00:42:21.115Z,3.40
2023-03-17T00:42:31.871Z,3.30
2023-03-17T00:42:42.603Z,3.40
2023-03-17T00:42:53.346Z,3.20
2023-03-17T00:43:05.074Z,3.30
2023-03-17T00:43:18.316Z,3.40
2023-03-17T00:43:30.638Z,3.40
2023-03-17T00:43:41.502Z,3.30
2023-03-17T00:43:52.232Z,3.40
2023-03-17T00:44:02.997Z,3.40
2023-03-17T00:44:16.111Z,3.50
2023-03-17T00:44:26.874Z,3.60
2023-03-17T00:44:38.623Z,3.10
2023-03-17T00:44:49.435Z,3.20
2023-03-17T00:45:00.183Z,3.30
2023-03-17T00:45:12.649Z,3.00
2023-03-17T00:45:25.095Z,3.10
2023-03-17T00:45:36.806Z,3.20
2023-03-17T00:45:47.575Z,3.30
2023-03-17T00:45:59.301Z,3.70
2023-03-17T00:46:11.758Z,3.50
2023-03-17T00:46:23.740Z,3.60
2023-03-17T00:46:35.780Z,3.20
2023-03-17T00:46:48.510Z,3.70
2023-03-17T00:47:00.272Z,3.60
2023-03-17T00:47:11.066Z,3.30
2023-03-17T00:47:25.203Z,2.90
2023-03-17T00:47:36.944Z,3.00
2023-03-17T00:47:48.644Z,3.00
2023-03-17T00:48:01.064Z,3.40
2023-03-17T00:48:12.795Z,3.40
2023-03-17T00:48:23.543Z,3.50
2023-03-17T00:48:35.253Z,3.40
2023-03-17T00:48:46.013Z,3.00
2023-03-17T00:48:58.461Z,3.00
2023-03-17T00:49:11.204Z,3.10
2023-03-17T00:49:22.962Z,3.30
2023-03-17T00:49:35.432Z,3.20
2023-03-17T00:49:46.210Z,3.50
2023-03-17T00:49:57.043Z,3.60
2023-03-17T00:50:07.819Z,3.40
2023-03-17T00:50:18.644Z,3.20
2023-03-17T00:50:29.682Z,2.90
2023-03-17T00:50:40.552Z,3.00
2023-03-17T00:50:52.172Z,3.30
2023-03-17T00:51:02.923Z,3.30
2023-03-17T00:51:15.186Z,3.60
2023-03-17T00:51:27.638Z,3.50
2023-03-17T00:51:41.315Z,3.50
2023-03-17T00:51:53.039Z,3.50
2023-03-17T00:52:04.782Z,3.40
2023-03-17T00:52:15.552Z,3.10
2023-03-17T00:52:27.244Z,3.20
2023-03-17T00:52:39.694Z,3.20
2023-03-17T00:52:50.439Z,3.10
2023-03-17T00:53:01.191Z,3.10
2023-03-17T00:53:12.887Z,3.10
2023-03-17T00:53:25.093Z,3.50
2023-03-17T00:53:37.012Z,3.70
2023-03-17T00:53:47.744Z,3.40
2023-03-17T00:53:59.957Z,3.50
2023-03-17T00:54:10.716Z,3.20
2023-03-17T00:54:21.490Z,3.40
2023-03-17T00:54:32.204Z,3.40
2023-03-17T00:54:43.928Z,3.40
2023-03-17T00:54:55.634Z,3.60
2023-03-17T00:55:07.362Z,3.60
2023-03-17T00:55:19.817Z,4.10
2023-03-17T00:55:32.329Z,4.00
2023-03-17T00:55:44.285Z,3.50
2023-03-17T00:55:56.010Z,3.80
2023-03-17T00:56:07.703Z,3.80
2023-03-17T00:56:18.504Z,3.80
2023-03-17T00:56:29.270Z,3.50
2023-03-17T00:56:41.762Z,3.60
2023-03-17T00:56:52.485Z,3.60
2023-03-17T00:57:04.949Z,3.60
2023-03-17T00:57:15.685Z,3.70
2023-03-17T00:57:27.904Z,3.40
2023-03-17T00:57:41.642Z,3.30
2023-03-17T00:57:54.356Z,3.20
2023-03-17T00:58:05.117Z,3.20
2023-03-17T00:58:15.859Z,3.60
2023-03-17T00:58:26.624Z,3.60
2023-03-17T00:58:38.349Z,3.60
2023-03-17T00:58:52.046Z,3.60
2023-03-17T00:59:02.806Z,3.60
2023-03-17T00:59:13.560Z,3.30
2023-03-17T00:59:24.304Z,3.20
2023-03-17T00:59:36.026Z,3.20
2023-03-17T00:59:47.743Z,3.40
2023-03-17T00:59:59.464Z,3.40
2023-03-17T01:00:10.268Z,3.50
2023-03-17T01:00:22.270Z,3.40
2023-03-17T01:00:33.329Z,3.40
2023-03-17T01:00:45.959Z,3.30
2023-03-17T01:00:56.754Z,3.20
2023-03-17T01:01:07.598Z,3.30
2023-03-17T01:01:19.438Z,3.20
2023-03-17T01:01:30.211Z,3.40
2023-03-17T01:01:42.754Z,3.20
2023-03-17T01:01:54.561Z,3.40
2023-03-17T01:02:05.400Z,3.20
2023-03-17T01:02:16.214Z,3.40
2023-03-17T01:02:27.121Z,3.70
2023-03-17T01:02:37.952Z,3.80
2023-03-17T01:02:49.638Z,3.20
2023-03-17T01:03:01.387Z,3.40
2023-03-17T01:03:12.173Z,3.40
2023-03-17T01:03:22.909Z,3.10
2023-03-17T01:03:33.714Z,3.20
2023-03-17T01:03:44.697Z,3.40
2023-03-17T01:03:57.469Z,3.50
2023-03-17T01:04:08.273Z,3.50
2023-03-17T01:04:20.069Z,3.60
2023-03-17T01:04:30.824Z,3.70
2023-03-17T01:04:42.865Z,3.50
2023-03-17T01:05:05.713Z,3.20
2023-03-17T01:05:15.614Z,3.30
2023-03-17T01:05:26.404Z,3.60
2023-03-17T01:05:37.143Z,3.60
2023-03-17T01:05:48.903Z,3.30
2023-03-17T01:06:01.279Z,3.80
2023-03-17T01:06:14.579Z,4.00
2023-03-17T01:06:25.529Z,3.40
2023-03-17T01:06:37.452Z,3.20
2023-03-17T01:06:48.361Z,3.40
2023-03-17T01:06:59.220Z,3.60
2023-03-17T01:07:10.994Z,3.50
2023-03-17T01:07:21.728Z,3.60
2023-03-17T01:07:33.991Z,3.60
2023-03-17T01:07:44.856Z,3.60
2023-03-17T01:07:55.628Z,4.00
2023-03-17T01:08:06.386Z,3.70
2023-03-17T01:08:18.424Z,3.30
2023-03-17T01:08:30.866Z,3.40
2023-03-17T01:08:41.750Z,3.50
2023-03-17T01:08:52.572Z,3.60
2023-03-17T01:09:05.067Z,3.70
2023-03-17T01:09:15.898Z,3.40
2023-03-17T01:09:27.652Z,3.20
2023-03-17T01:09:40.040Z,3.20
2023-03-17T01:09:51.781Z,3.70
2023-03-17T01:10:03.527Z,3.70
2023-03-17T01:10:15.789Z,3.80
2023-03-17T01:10:26.530Z,3.50
2023-03-17T01:10:37.270Z,3.50
2023-03-17T01:10:48.069Z,3.60
2023-03-17T01:10:58.814Z,3.80
2023-03-17T01:11:10.522Z,3.90
2023-03-17T01:11:22.980Z,3.40
2023-03-17T01:11:33.775Z,3.40
2023-03-17T01:11:44.530Z,3.40
2023-03-17T01:11:55.266Z,3.60
2023-03-17T01:12:07.460Z,3.30
2023-03-17T01:12:18.225Z,3.00
2023-03-17T01:12:29.005Z,3.00
2023-03-17T01:12:39.753Z,3.20
2023-03-17T01:12:50.513Z,3.60
2023-03-17T01:13:01.285Z,3.60
2023-03-17T01:13:12.025Z,3.60
2023-03-17T01:13:22.866Z,3.50
2023-03-17T01:13:33.643Z,3.50
2023-03-17T01:13:44.394Z,3.10
2023-03-17T01:13:55.123Z,3.30
2023-03-17T01:14:05.928Z,3.40
2023-03-17T01:14:18.374Z,3.50
2023-03-17T01:14:29.297Z,3.40
2023-03-17T01:14:40.152Z,4.00
2023-03-17T01:14:50.922Z,3.80
2023-03-17T01:15:02.624Z,3.70
2023-03-17T01:15:13.414Z,3.60
2023-03-17T01:15:25.882Z,3.50
2023-03-17T01:15:36.637Z,3.50
2023-03-17T01:15:48.363Z,3.40
2023-03-17T01:15:59.132Z,3.20
2023-03-17T01:16:09.873Z,3.10
2023-03-17T01:16:21.769Z,3.20
2023-03-17T01:16:32.668Z,3.50
2023-03-17T01:16:43.594Z,3.90
2023-03-17T01:16:56.102Z,4.10
2023-03-17T01:17:06.875Z,3.90
2023-03-17T01:17:17.668Z,3.60
2023-03-17T01:17:28.451Z,3.50
2023-03-17T01:17:39.196Z,3.70
2023-03-17T01:17:49.980Z,3.70
2023-03-17T01:18:01.736Z,3.70
2023-03-17T01:18:14.216Z,3.50
2023-03-17T01:18:25.941Z,3.40
2023-03-17T01:18:38.464Z,3.40
2023-03-17T01:18:49.278Z,3.30
2023-03-17T01:19:00.162Z,3.60
2023-03-17T01:19:10.960Z,3.40
2023-03-17T01:19:21.703Z,3.30
2023-03-17T01:19:32.555Z,3.30
2023-03-17T01:19:44.326Z,3.50
2023-03-17T01:19:55.116Z,3.50
2023-03-17T01:20:06.843Z,3.60
2023-03-17T01:20:17.576Z,3.60
2023-03-17T01:20:28.748Z,3.80
2023-03-17T01:20:39.555Z,4.00
2023-03-17T01:20:50.333Z,3.80
2023-03-17T01:21:02.539Z,3.30
2023-03-17T01:21:14.254Z,3.10
2023-03-17T01:21:24.987Z,3.40
2023-03-17T01:21:35.735Z,3.40
2023-03-17T01:21:46.512Z,3.30
2023-03-17T01:21:59.254Z,3.20
2023-03-17T01:22:10.042Z,3.50
2023-03-17T01:22:20.764Z,3.60
2023-03-17T01:22:31.496Z,3.70
2023-03-17T01:22:44.456Z,3.40
2023-03-17T01:22:55.213Z,3.40
2023-03-17T01:23:07.684Z,4.30
2023-03-17T01:23:21.385Z,4.40
2023-03-17T01:23:32.127Z,3.50
2023-03-17T01:23:43.844Z,3.50
2023-03-17T01:23:54.655Z,3.70
2023-03-17T01:24:06.390Z,3.80
2023-03-17T01:24:18.133Z,4.10
2023-03-17T01:24:28.886Z,4.00
2023-03-17T01:24:40.646Z,4.10
2023-03-17T01:24:53.157Z,3.70
2023-03-17T01:25:04.870Z,4.00
2023-03-17T01:25:16.695Z,3.60
2023-03-17T01:25:27.505Z,3.60
2023-03-17T01:25:38.283Z,3.60
2023-03-17T01:25:50.729Z,3.90
2023-03-17T01:26:03.447Z,3.50
2023-03-17T01:26:14.175Z,3.40
2023-03-17T01:26:26.089Z,4.10
2023-03-17T01:26:38.641Z,3.90
2023-03-17T01:26:51.998Z,3.50
2023-03-17T01:27:03.756Z,3.50
2023-03-17T01:27:17.560Z,3.20
2023-03-17T01:27:30.612Z,3.40
2023-03-17T01:27:44.070Z,3.70
2023-03-17T01:27:55.791Z,3.60
2023-03-17T01:28:08.200Z,3.50
2023-03-17T01:28:19.923Z,3.30
2023-03-17T01:28:31.630Z,3.40
2023-03-17T01:28:44.089Z,3.40
2023-03-17T01:28:55.097Z,3.10
2023-03-17T01:29:05.853Z,3.10
2023-03-17T01:29:19.095Z,3.40
2023-03-17T01:29:30.798Z,3.30
2023-03-17T01:29:41.537Z,3.10
2023-03-17T01:29:53.757Z,3.40
2023-03-17T01:30:04.544Z,3.50
2023-03-17T01:30:16.759Z,3.50
2023-03-17T01:30:27.890Z,3.30
2023-03-17T01:30:38.877Z,3.80
2023-03-17T01:30:50.589Z,3.60
2023-03-17T01:31:01.393Z,3.80
2023-03-17T01:31:13.156Z,3.30
2023-03-17T01:31:23.925Z,3.80
2023-03-17T01:31:35.721Z,3.70
2023-03-17T01:31:48.966Z,3.80
2023-03-17T01:32:01.917Z,3.70
2023-03-17T01:32:13.856Z,3.50
2023-03-17T01:32:24.590Z,3.60
2023-03-17T01:32:36.305Z,3.50
2023-03-17T01:32:47.140Z,3.30
2023-03-17T01:32:57.985Z,3.30
2023-03-17T01:33:08.826Z,3.30
2023-03-17T01:33:19.585Z,3.30
2023-03-17T01:33:31.326Z,3.30
2023-03-17T01:33:43.750Z,3.20
2023-03-17T01:33:54.500Z,3.10
2023-03-17T01:34:05.299Z,3.10
2023-03-17T01:34:16.095Z,3.30
2023-03-17T01:34:26.844Z,3.30
2023-03-17T01:34:38.560Z,3.30
2023-03-17T01:34:49.289Z,3.60
2023-03-17T01:35:02.534Z,3.70
2023-03-17T01:35:14.261Z,3.60
2023-03-17T01:35:25.081Z,3.40
2023-03-17T01:35:35.974Z,3.30
2023-03-17T01:35:47.797Z,3.60
2023-03-17T01:36:00.319Z,3.50
2023-03-17T01:36:14.175Z,3.50
2023-03-17T01:36:24.928Z,3.20
2023-03-17T01:36:35.771Z,3.30
2023-03-17T01:36:46.606Z,3.50
2023-03-17T01:36:57.417Z,3.70
2023-03-17T01:37:10.660Z,3.60
2023-03-17T01:37:22.881Z,3.20
2023-03-17T01:37:35.148Z,3.20
2023-03-17T01:37:45.999Z,3.40
2023-03-17T01:37:58.508Z,3.50
2023-03-17T01:38:09.300Z,3.50
2023-03-17T01:38:20.085Z,3.40
2023-03-17T01:38:30.803Z,3.30
2023-03-17T01:38:41.590Z,3.20
2023-03-17T01:38:52.305Z,3.80
2023-03-17T01:39:03.041Z,3.90
2023-03-17T01:39:14.787Z,3.60
2023-03-17T01:39:25.530Z,3.40
2023-03-17T01:39:37.334Z,3.20
2023-03-17T01:39:48.140Z,3.00
2023-03-17T01:39:59.852Z,3.20
2023-03-17T01:40:10.614Z,3.30
2023-03-17T01:40:21.402Z,3.50
2023-03-17T01:40:32.664Z,3.70
2023-03-17T01:40:43.680Z,3.80
2023-03-17T01:40:55.446Z,3.50
2023-03-17T01:41:06.282Z,3.90
2023-03-17T01:41:17.040Z,3.90
2023-03-17T01:41:27.794Z,4.10
2023-03-17T01:41:38.586Z,3.60
2023-03-17T01:41:49.334Z,3.40
2023-03-17T01:42:01.057Z,3.50
2023-03-17T01:42:13.485Z,3.40
2023-03-17T01:42:26.710Z,3.40
2023-03-17T01:42:39.186Z,3.50
2023-03-17T01:42:49.983Z,3.50
2023-03-17T01:43:01.675Z,3.40
2023-03-17T01:43:12.443Z,3.70
2023-03-17T01:43:24.147Z,3.80
2023-03-17T01:43:34.881Z,4.10
2023-03-17T01:43:45.636Z,4.20
2023-03-17T01:43:56.387Z,3.90
2023-03-17T01:44:08.113Z,4.20
2023-03-17T01:44:20.614Z,4.10
2023-03-17T01:44:34.109Z,3.70
2023-03-17T01:44:45.791Z,3.80
2023-03-17T01:44:57.525Z,4.10
2023-03-17T01:45:08.276Z,4.10
2023-03-17T01:45:20.812Z,3.60
2023-03-17T01:45:31.601Z,3.40
2023-03-17T01:45:42.343Z,3.20
2023-03-17T01:45:54.861Z,3.40
2023-03-17T01:46:05.682Z,3.40
2023-03-17T01:46:18.169Z,3.60
2023-03-17T01:46:30.610Z,3.50
2023-03-17T01:46:43.597Z,3.40
2023-03-17T01:46:55.300Z,3.40
2023-03-17T01:47:07.016Z,4.10
2023-03-17T01:47:19.554Z,4.60
2023-03-17T01:47:33.327Z,4.30
2023-03-17T01:47:44.084Z,3.90
2023-03-17T01:47:57.065Z,3.60
2023-03-17T01:48:10.077Z,3.30
2023-03-17T01:48:20.904Z,3.50
2023-03-17T01:48:33.653Z,3.80
2023-03-17T01:48:45.652Z,3.70
2023-03-17T01:48:56.394Z,3.30
2023-03-17T01:49:07.154Z,3.70
2023-03-17T01:49:18.854Z,3.80
2023-03-17T01:49:29.618Z,3.90
2023-03-17T01:49:42.924Z,3.80
2023-03-17T01:49:56.163Z,3.60
2023-03-17T01:50:09.437Z,3.40
2023-03-17T01:50:22.648Z,3.70
2023-03-17T01:50:35.143Z,4.20
2023-03-17T01:50:45.865Z,4.10
2023-03-17T01:50:57.559Z,3.80
2023-03-17T01:51:09.541Z,3.70
2023-03-17T01:51:20.295Z,3.70
2023-03-17T01:51:31.045Z,4.00
2023-03-17T01:51:41.825Z,4.20
2023-03-17T01:51:52.630Z,4.00
2023-03-17T01:52:04.334Z,3.80
2023-03-17T01:52:15.069Z,3.60
2023-03-17T01:52:27.546Z,3.50
2023-03-17T01:52:40.017Z,3.70
2023-03-17T01:52:51.765Z,3.80
2023-03-17T01:53:02.550Z,3.80
2023-03-17T01:53:13.296Z,3.80
2023-03-17T01:53:24.029Z,3.80
2023-03-17T01:53:34.768Z,3.80
2023-03-17T01:53:46.492Z,4.20
2023-03-17T01:53:59.066Z,4.40
2023-03-17T01:54:09.826Z,4.30
2023-03-17T01:54:20.577Z,4.20
2023-03-17T01:54:33.009Z,4.40
2023-03-17T01:54:45.287Z,4.30
2023-03-17T01:54:56.078Z,4.30
2023-03-17T01:55:06.828Z,4.00
2023-03-17T01:55:17.878Z,3.70
2023-03-17T01:55:28.656Z,3.90
2023-03-17T01:55:40.397Z,4.00
2023-03-17T01:55:51.215Z,3.80
2023-03-17T01:56:01.993Z,3.60
2023-03-17T01:56:14.956Z,3.40
2023-03-17T01:56:25.684Z,3.70
2023-03-17T01:56:38.204Z,3.70
2023-03-17T01:56:49.974Z,3.60
2023-03-17T01:57:00.780Z,3.60
2023-03-17T01:57:12.489Z,3.50
2023-03-17T01:57:25.714Z,3.80
2023-03-17T01:57:37.444Z,3.90
2023-03-17T01:57:51.149Z,4.20
2023-03-17T01:58:01.888Z,4.00
2023-03-17T01:58:16.118Z,4.00
2023-03-17T01:58:26.885Z,3.90
2023-03-17T01:58:39.127Z,3.90
2023-03-17T01:58:49.912Z,4.30
2023-03-17T01:59:02.374Z,4.10
2023-03-17T01:59:13.122Z,3.40
2023-03-17T01:59:24.863Z,3.70
2023-03-17T01:59:35.589Z,3.80
2023-03-17T01:59:46.336Z,3.90
2023-03-17T01:59:58.830Z,4.10
2023-03-17T02:00:11.252Z,4.00
2023-03-17T02:00:22.136Z,3.50
2023-03-17T02:00:32.918Z,3.10
2023-03-17T02:00:44.744Z,3.10
2023-03-17T02:00:55.508Z,3.40
2023-03-17T02:01:08.023Z,3.60
2023-03-17T02:01:18.885Z,3.60
2023-03-17T02:01:30.923Z,3.30
2023-03-17T02:01:41.686Z,3.60
2023-03-17T02:01:52.450Z,3.50
2023-03-17T02:02:04.235Z,3.40
2023-03-17T02:02:14.965Z,3.50
2023-03-17T02:02:25.716Z,3.70
2023-03-17T02:02:36.595Z,3.70
2023-03-17T02:02:47.353Z,3.50
2023-03-17T02:02:58.095Z,3.50
2023-03-17T02:03:08.867Z,3.50
2023-03-17T02:03:21.322Z,3.50
2023-03-17T02:03:32.091Z,3.50
2023-03-17T02:03:43.796Z,3.60
2023-03-17T02:03:54.620Z,3.60
2023-03-17T02:04:05.384Z,3.50
2023-03-17T02:04:16.306Z,3.20
2023-03-17T02:04:27.194Z,2.90
2023-03-17T02:04:38.066Z,3.10
2023-03-17T02:04:49.785Z,3.50
2023-03-17T02:05:00.546Z,3.40
2023-03-17T02:05:13.043Z,3.40
2023-03-17T02:05:23.777Z,3.70
2023-03-17T02:05:34.759Z,3.70
2023-03-17T02:05:45.546Z,3.60
2023-03-17T02:05:56.363Z,3.60
2023-03-17T02:06:09.109Z,3.50
2023-03-17T02:06:21.329Z,3.80
2023-03-17T02:06:34.946Z,3.70
2023-03-17T02:06:57.462Z,3.50
2023-03-17T02:07:03.624Z,3.40
2023-03-17T02:07:15.367Z,3.60
2023-03-17T02:07:26.127Z,3.90
2023-03-17T02:07:37.865Z,3.80
2023-03-17T02:07:48.656Z,3.70
2023-03-17T02:08:01.118Z,3.60
2023-03-17T02:08:13.924Z,3.90
2023-03-17T02:08:27.011Z,4.00
2023-03-17T02:08:38.850Z,4.10
2023-03-17T02:08:49.602Z,3.80
2023-03-17T02:09:02.731Z,4.00
2023-03-17T02:09:14.973Z,4.10
2023-03-17T02:09:25.726Z,4.00
2023-03-17T02:09:36.470Z,3.90
2023-03-17T02:09:47.228Z,3.80
2023-03-17T02:09:57.998Z,3.70
2023-03-17T02:10:08.783Z,3.50
2023-03-17T02:10:21.009Z,3.90
2023-03-17T02:10:34.773Z,4.40
2023-03-17T02:10:46.600Z,4.20
2023-03-17T02:10:58.799Z,3.70
2023-03-17T02:11:09.563Z,3.60
2023-03-17T02:11:21.298Z,3.70
2023-03-17T02:11:32.052Z,3.90
2023-03-17T02:11:42.829Z,3.80
2023-03-17T02:11:54.579Z,3.70
2023-03-17T02:12:06.761Z,3.50
2023-03-17T02:12:17.506Z,3.60
2023-03-17T02:12:28.258Z,3.10
2023-03-17T02:12:40.030Z,3.40
2023-03-17T02:12:50.757Z,3.60
2023-03-17T02:13:01.517Z,3.90
2023-03-17T02:13:12.305Z,3.80
2023-03-17T02:13:24.780Z,3.60
2023-03-17T02:13:36.512Z,4.00
2023-03-17T02:13:48.201Z,3.80
2023-03-17T02:13:58.943Z,3.80
2023-03-17T02:14:09.692Z,3.50
2023-03-17T02:14:22.938Z,3.90
2023-03-17T02:14:33.763Z,4.20
2023-03-17T02:14:44.528Z,4.10
2023-03-17T02:14:57.264Z,3.90
2023-03-17T02:15:08.031Z,4.00
2023-03-17T02:15:21.259Z,3.70
2023-03-17T02:15:32.009Z,3.60
2023-03-17T02:15:43.734Z,3.80
2023-03-17T02:15:55.939Z,3.70
2023-03-17T02:16:06.719Z,3.80
2023-03-17T02:16:19.991Z,3.70
2023-03-17T02:16:33.286Z,4.10
2023-03-17T02:16:44.108Z,3.90
2023-03-17T02:16:55.966Z,3.90
2023-03-17T02:17:07.876Z,4.10
2023-03-17T02:17:18.650Z,4.40
2023-03-17T02:17:29.453Z,4.10
2023-03-17T02:17:41.242Z,3.50
2023-03-17T02:17:51.970Z,3.20
2023-03-17T02:18:05.064Z,3.10
2023-03-17T02:18:16.808Z,3.60
2023-03-17T02:18:28.594Z,3.80
2023-03-17T02:18:40.290Z,4.10
2023-03-17T02:18:52.000Z,3.60
2023-03-17T02:19:04.298Z,3.40
2023-03-17T02:19:16.562Z,3.50
2023-03-17T02:19:28.261Z,3.60
2023-03-17T02:19:41.013Z,4.00
2023-03-17T02:19:51.804Z,4.00
2023-03-17T02:20:04.318Z,4.10
2023-03-17T02:20:15.121Z,4.00
2023-03-17T02:20:25.909Z,4.20
2023-03-17T02:20:37.751Z,3.90
2023-03-17T02:20:48.540Z,3.80
2023-03-17T02:20:59.316Z,3.50
2023-03-17T02:21:11.030Z,3.20
2023-03-17T02:21:21.781Z,3.10
2023-03-17T02:21:32.588Z,3.50
2023-03-17T02:21:43.328Z,3.60
2023-03-17T02:21:55.163Z,4.00
2023-03-17T02:22:06.867Z,3.90
2023-03-17T02:22:17.624Z,3.90
2023-03-17T02:22:28.378Z,3.90
2023-03-17T02:22:39.181Z,4.10
2023-03-17T02:22:49.932Z,4.20
2023-03-17T02:23:00.753Z,3.70
2023-03-17T02:23:11.502Z,3.80
2023-03-17T02:23:23.207Z,4.00
2023-03-17T02:23:34.912Z,3.60
2023-03-17T02:23:47.378Z,3.70
2023-03-17T02:23:58.191Z,3.80
2023-03-17T02:24:08.967Z,3.80
2023-03-17T02:24:19.746Z,3.90
2023-03-17T02:24:31.519Z,4.00
2023-03-17T02:24:42.293Z,3.70
2023-03-17T02:24:54.042Z,3.70
2023-03-17T02:25:04.853Z,3.50
2023-03-17T02:25:16.574Z,3.60
2023-03-17T02:25:28.273Z,3.70
2023-03-17T02:25:40.018Z,3.70
2023-03-17T02:25:52.469Z,3.90
2023-03-17T02:26:03.236Z,3.70
2023-03-17T02:26:14.002Z,3.50
2023-03-17T02:26:24.771Z,3.30
2023-03-17T02:26:36.614Z,3.60
2023-03-17T02:26:50.368Z,3.70
2023-03-17T02:27:02.078Z,3.60
2023-03-17T02:27:12.833Z,3.70
2023-03-17T02:27:25.310Z,3.60
2023-03-17T02:27:37.736Z,3.50
2023-03-17T02:27:49.974Z,3.40
2023-03-17T02:28:03.120Z,3.30
2023-03-17T02:28:13.875Z,3.60
2023-03-17T02:28:25.628Z,3.90
2023-03-17T02:28:36.432Z,3.70
2023-03-17T02:28:48.446Z,3.90
2023-03-17T02:29:01.186Z,4.00
2023-03-17T02:29:11.945Z,4.00
2023-03-17T02:29:25.129Z,3.80
2023-03-17T02:29:37.611Z,3.30
2023-03-17T02:29:48.345Z,3.40
2023-03-17T02:30:00.814Z,3.90
2023-03-17T02:30:11.688Z,4.20
2023-03-17T02:30:24.153Z,4.00
2023-03-17T02:30:34.985Z,3.90
2023-03-17T02:30:47.263Z,3.80
2023-03-17T02:31:00.596Z,4.10
2023-03-17T02:31:11.356Z,3.90
2023-03-17T02:31:22.245Z,3.80
2023-03-17T02:31:34.773Z,3.90
2023-03-17T02:31:45.596Z,4.00
2023-03-17T02:31:57.305Z,4.20
2023-03-17T02:32:09.557Z,3.90
2023-03-17T02:32:20.401Z,4.00
2023-03-17T02:32:32.110Z,4.20
2023-03-17T02:32:42.866Z,4.00
2023-03-17T02:32:54.626Z,3.90
2023-03-17T02:33:05.499Z,3.60
2023-03-17T02:33:16.241Z,3.60
2023-03-17T02:33:26.975Z,3.70
2023-03-17T02:33:37.716Z,3.50
2023-03-17T02:33:48.460Z,4.00
2023-03-17T02:34:01.462Z,3.80
2023-03-17T02:34:12.223Z,3.70
2023-03-17T02:34:22.955Z,3.70
2023-03-17T02:34:35.414Z,3.90